sensor_id;sensor_type;location;lat;lon;timestamp;P1;durP1;ratioP1;P2;durP2;ratioP2
44536;SDS011;30245;51.966;6.292;2023-05-23T00:01:33;2.80;;;1.88;;
44536;SDS011;30245;51.966;6.292;2023-05-23T00:04:04;3.08;;;1.65;;
44536;SDS011;30245;51.966;6.292;2023-05-23T00:06:30;2.65;;;1.10;;
44536;SDS011;30245;51.966;6.292;2023-05-23T00:08:58;2.75;;;1.00;;
44536;SDS011;30245;51.966;6.292;2023-05-23T00:11:23;2.45;;;1.05;;
44536;SDS011;30245;51.966;6.292;2023-05-23T00:13:54;4.38;;;0.98;;
44536;SDS011;30245;51.966;6.292;2023-05-23T00:16:21;1.45;;;0.75;;
44536;SDS011;30245;51.966;6.292;2023-05-23T00:18:47;3.58;;;1.05;;
44536;SDS011;30245;51.966;6.292;2023-05-23T00:21:14;2.55;;;1.58;;
44536;SDS011;30245;51.966;6.292;2023-05-23T00:23:40;2.88;;;1.08;;
44536;SDS011;30245;51.966;6.292;2023-05-23T00:26:07;3.45;;;1.58;;
44536;SDS011;30245;51.966;6.292;2023-05-23T00:28:33;2.33;;;1.23;;
44536;SDS011;30245;51.966;6.292;2023-05-23T00:30:58;2.67;;;1.23;;
44536;SDS011;30245;51.966;6.292;2023-05-23T00:33:24;2.10;;;1.38;;
44536;SDS011;30245;51.966;6.292;2023-05-23T00:35:49;3.80;;;1.45;;
44536;SDS011;30245;51.966;6.292;2023-05-23T00:38:15;3.97;;;1.67;;
44536;SDS011;30245;51.966;6.292;2023-05-23T00:40:41;2.05;;;1.30;;
44536;SDS011;30245;51.966;6.292;2023-05-23T00:43:06;1.85;;;1.45;;
44536;SDS011;30245;51.966;6.292;2023-05-23T00:45:32;2.42;;;1.52;;
44536;SDS011;30245;51.966;6.292;2023-05-23T00:47:58;2.15;;;1.55;;
44536;SDS011;30245;51.966;6.292;2023-05-23T00:50:24;2.97;;;1.70;;
44536;SDS011;30245;51.966;6.292;2023-05-23T00:52:54;3.47;;;1.33;;
44536;SDS011;30245;51.966;6.292;2023-05-23T00:55:24;2.30;;;1.23;;
44536;SDS011;30245;51.966;6.292;2023-05-23T00:57:50;2.53;;;1.48;;
44536;SDS011;30245;51.966;6.292;2023-05-23T01:00:19;4.10;;;0.98;;
44536;SDS011;30245;51.966;6.292;2023-05-23T01:02:47;1.90;;;1.40;;
44536;SDS011;30245;51.966;6.292;2023-05-23T01:05:15;2.58;;;1.50;;
44536;SDS011;30245;51.966;6.292;2023-05-23T01:07:45;3.92;;;1.98;;
44536;SDS011;30245;51.966;6.292;2023-05-23T01:10:15;2.83;;;1.73;;
44536;SDS011;30245;51.966;6.292;2023-05-23T01:15:32;2.92;;;1.60;;
44536;SDS011;30245;51.966;6.292;2023-05-23T01:18:15;3.30;;;1.38;;
44536;SDS011;30245;51.966;6.292;2023-05-23T01:20:51;5.05;;;2.35;;
44536;SDS011;30245;51.966;6.292;2023-05-23T01:28:50;7.28;;;2.60;;
44536;SDS011;30245;51.966;6.292;2023-05-23T01:31:20;7.05;;;2.30;;
44536;SDS011;30245;51.966;6.292;2023-05-23T01:36:14;6.20;;;2.80;;
44536;SDS011;30245;51.966;6.292;2023-05-23T01:38:40;6.15;;;2.25;;
44536;SDS011;30245;51.966;6.292;2023-05-23T01:41:06;2.58;;;1.40;;
44536;SDS011;30245;51.966;6.292;2023-05-23T01:43:32;3.58;;;1.75;;
44536;SDS011;30245;51.966;6.292;2023-05-23T01:45:58;6.97;;;1.42;;
44536;SDS011;30245;51.966;6.292;2023-05-23T01:48:24;5.95;;;1.83;;
44536;SDS011;30245;51.966;6.292;2023-05-23T01:50:51;5.05;;;1.55;;
44536;SDS011;30245;51.966;6.292;2023-05-23T01:53:19;4.93;;;2.28;;
44536;SDS011;30245;51.966;6.292;2023-05-23T01:55:48;3.72;;;1.30;;
44536;SDS011;30245;51.966;6.292;2023-05-23T01:58:15;2.20;;;1.27;;
44536;SDS011;30245;51.966;6.292;2023-05-23T02:00:41;9.20;;;2.03;;
44536;SDS011;30245;51.966;6.292;2023-05-23T02:03:06;2.75;;;1.80;;
44536;SDS011;30245;51.966;6.292;2023-05-23T02:05:32;2.95;;;1.92;;
44536;SDS011;30245;51.966;6.292;2023-05-23T02:07:57;6.22;;;1.90;;
44536;SDS011;30245;51.966;6.292;2023-05-23T02:10:23;2.65;;;1.80;;
44536;SDS011;30245;51.966;6.292;2023-05-23T02:12:49;3.22;;;1.83;;
44536;SDS011;30245;51.966;6.292;2023-05-23T02:15:14;2.95;;;1.08;;
44536;SDS011;30245;51.966;6.292;2023-05-23T02:17:41;3.65;;;1.20;;
44536;SDS011;30245;51.966;6.292;2023-05-23T02:20:07;2.72;;;1.58;;
44536;SDS011;30245;51.966;6.292;2023-05-23T02:22:34;3.88;;;1.75;;
44536;SDS011;30245;51.966;6.292;2023-05-23T02:24:59;3.55;;;1.33;;
44536;SDS011;30245;51.966;6.292;2023-05-23T02:27:25;2.58;;;1.35;;
44536;SDS011;30245;51.966;6.292;2023-05-23T02:29:51;7.50;;;2.25;;
44536;SDS011;30245;51.966;6.292;2023-05-23T02:32:16;3.38;;;1.85;;
44536;SDS011;30245;51.966;6.292;2023-05-23T02:34:42;5.28;;;2.00;;
44536;SDS011;30245;51.966;6.292;2023-05-23T02:37:10;5.50;;;2.20;;
44536;SDS011;30245;51.966;6.292;2023-05-23T02:39:37;3.13;;;1.23;;
44536;SDS011;30245;51.966;6.292;2023-05-23T02:42:02;4.93;;;2.03;;
44536;SDS011;30245;51.966;6.292;2023-05-23T02:44:28;3.30;;;2.13;;
44536;SDS011;30245;51.966;6.292;2023-05-23T02:46:54;5.10;;;2.15;;
44536;SDS011;30245;51.966;6.292;2023-05-23T02:49:19;4.38;;;1.88;;
44536;SDS011;30245;51.966;6.292;2023-05-23T02:51:45;4.05;;;2.20;;
44536;SDS011;30245;51.966;6.292;2023-05-23T02:54:10;3.38;;;1.77;;
44536;SDS011;30245;51.966;6.292;2023-05-23T02:56:36;7.57;;;2.63;;
44536;SDS011;30245;51.966;6.292;2023-05-23T02:59:01;4.97;;;2.95;;
44536;SDS011;30245;51.966;6.292;2023-05-23T03:01:27;3.90;;;2.25;;
44536;SDS011;30245;51.966;6.292;2023-05-23T03:03:53;7.10;;;2.45;;
44536;SDS011;30245;51.966;6.292;2023-05-23T03:06:18;5.72;;;2.80;;
44536;SDS011;30245;51.966;6.292;2023-05-23T03:08:46;5.43;;;2.45;;
44536;SDS011;30245;51.966;6.292;2023-05-23T03:11:11;6.88;;;2.58;;
44536;SDS011;30245;51.966;6.292;2023-05-23T03:13:37;5.55;;;2.58;;
44536;SDS011;30245;51.966;6.292;2023-05-23T03:16:02;5.22;;;2.58;;
44536;SDS011;30245;51.966;6.292;2023-05-23T03:18:28;5.72;;;2.70;;
44536;SDS011;30245;51.966;6.292;2023-05-23T03:20:54;7.30;;;3.15;;
44536;SDS011;30245;51.966;6.292;2023-05-23T03:23:19;6.75;;;2.90;;
44536;SDS011;30245;51.966;6.292;2023-05-23T03:25:45;5.93;;;2.60;;
44536;SDS011;30245;51.966;6.292;2023-05-23T03:28:10;3.20;;;2.38;;
44536;SDS011;30245;51.966;6.292;2023-05-23T03:30:36;4.10;;;2.63;;
44536;SDS011;30245;51.966;6.292;2023-05-23T03:33:02;9.07;;;2.92;;
44536;SDS011;30245;51.966;6.292;2023-05-23T03:35:28;2.92;;;2.33;;
44536;SDS011;30245;51.966;6.292;2023-05-23T03:37:53;6.60;;;3.38;;
44536;SDS011;30245;51.966;6.292;2023-05-23T03:40:19;3.78;;;2.67;;
44536;SDS011;30245;51.966;6.292;2023-05-23T03:42:46;6.00;;;3.28;;
44536;SDS011;30245;51.966;6.292;2023-05-23T03:45:13;5.35;;;2.97;;
44536;SDS011;30245;51.966;6.292;2023-05-23T03:47:39;5.63;;;2.50;;
44536;SDS011;30245;51.966;6.292;2023-05-23T03:50:06;5.47;;;2.83;;
44536;SDS011;30245;51.966;6.292;2023-05-23T03:52:32;4.63;;;2.95;;
44536;SDS011;30245;51.966;6.292;2023-05-23T03:54:58;3.97;;;3.42;;
44536;SDS011;30245;51.966;6.292;2023-05-23T03:57:23;6.38;;;3.75;;
44536;SDS011;30245;51.966;6.292;2023-05-23T03:59:49;8.15;;;3.40;;
44536;SDS011;30245;51.966;6.292;2023-05-23T04:02:14;6.05;;;2.40;;
44536;SDS011;30245;51.966;6.292;2023-05-23T04:04:40;6.38;;;3.38;;
44536;SDS011;30245;51.966;6.292;2023-05-23T04:07:06;5.05;;;2.78;;
44536;SDS011;30245;51.966;6.292;2023-05-23T04:09:33;7.75;;;3.55;;
44536;SDS011;30245;51.966;6.292;2023-05-23T04:11:59;10.38;;;3.80;;
44536;SDS011;30245;51.966;6.292;2023-05-23T04:14:25;5.22;;;3.50;;
44536;SDS011;30245;51.966;6.292;2023-05-23T04:16:51;7.53;;;3.70;;
44536;SDS011;30245;51.966;6.292;2023-05-23T04:19:16;4.65;;;2.03;;
44536;SDS011;30245;51.966;6.292;2023-05-23T04:21:42;4.22;;;2.88;;
44536;SDS011;30245;51.966;6.292;2023-05-23T04:24:08;6.93;;;3.75;;
44536;SDS011;30245;51.966;6.292;2023-05-23T04:26:33;7.18;;;2.63;;
44536;SDS011;30245;51.966;6.292;2023-05-23T04:29:00;6.40;;;3.30;;
44536;SDS011;30245;51.966;6.292;2023-05-23T04:31:26;6.35;;;3.28;;
44536;SDS011;30245;51.966;6.292;2023-05-23T04:33:52;3.75;;;2.83;;
44536;SDS011;30245;51.966;6.292;2023-05-23T04:36:17;6.90;;;3.60;;
44536;SDS011;30245;51.966;6.292;2023-05-23T04:38:43;5.38;;;3.13;;
44536;SDS011;30245;51.966;6.292;2023-05-23T04:41:08;3.78;;;3.28;;
44536;SDS011;30245;51.966;6.292;2023-05-23T04:43:34;11.63;;;3.40;;
44536;SDS011;30245;51.966;6.292;2023-05-23T04:46:06;8.70;;;3.70;;
44536;SDS011;30245;51.966;6.292;2023-05-23T04:48:34;7.47;;;3.42;;
44536;SDS011;30245;51.966;6.292;2023-05-23T04:51:01;6.90;;;3.20;;
44536;SDS011;30245;51.966;6.292;2023-05-23T04:53:30;7.32;;;3.47;;
44536;SDS011;30245;51.966;6.292;2023-05-23T04:55:55;7.03;;;2.95;;
44536;SDS011;30245;51.966;6.292;2023-05-23T04:58:21;5.38;;;2.05;;
44536;SDS011;30245;51.966;6.292;2023-05-23T05:00:47;4.00;;;3.25;;
44536;SDS011;30245;51.966;6.292;2023-05-23T05:03:12;3.70;;;2.97;;
44536;SDS011;30245;51.966;6.292;2023-05-23T05:05:38;6.57;;;3.25;;
44536;SDS011;30245;51.966;6.292;2023-05-23T05:08:03;5.35;;;2.70;;
44536;SDS011;30245;51.966;6.292;2023-05-23T05:10:29;4.95;;;2.28;;
44536;SDS011;30245;51.966;6.292;2023-05-23T05:12:55;5.78;;;3.33;;
44536;SDS011;30245;51.966;6.292;2023-05-23T05:15:20;7.85;;;2.80;;
44536;SDS011;30245;51.966;6.292;2023-05-23T05:17:46;6.20;;;2.65;;
44536;SDS011;30245;51.966;6.292;2023-05-23T05:20:12;5.13;;;2.45;;
44536;SDS011;30245;51.966;6.292;2023-05-23T05:22:37;6.57;;;2.80;;
44536;SDS011;30245;51.966;6.292;2023-05-23T05:25:07;6.97;;;2.70;;
44536;SDS011;30245;51.966;6.292;2023-05-23T05:27:34;6.82;;;3.13;;
44536;SDS011;30245;51.966;6.292;2023-05-23T05:30:03;5.50;;;2.83;;
44536;SDS011;30245;51.966;6.292;2023-05-23T05:32:33;4.05;;;2.78;;
44536;SDS011;30245;51.966;6.292;2023-05-23T05:34:59;5.30;;;2.33;;
44536;SDS011;30245;51.966;6.292;2023-05-23T05:37:25;4.32;;;3.03;;
44536;SDS011;30245;51.966;6.292;2023-05-23T05:39:51;6.97;;;3.00;;
44536;SDS011;30245;51.966;6.292;2023-05-23T05:42:18;5.55;;;2.58;;
44536;SDS011;30245;51.966;6.292;2023-05-23T05:44:44;5.60;;;2.75;;
44536;SDS011;30245;51.966;6.292;2023-05-23T05:47:10;11.55;;;4.32;;
44536;SDS011;30245;51.966;6.292;2023-05-23T05:49:37;6.63;;;2.47;;
44536;SDS011;30245;51.966;6.292;2023-05-23T05:52:02;8.25;;;3.38;;
44536;SDS011;30245;51.966;6.292;2023-05-23T05:54:28;5.93;;;2.83;;
44536;SDS011;30245;51.966;6.292;2023-05-23T05:56:54;8.90;;;2.42;;
44536;SDS011;30245;51.966;6.292;2023-05-23T05:59:19;10.60;;;4.35;;
44536;SDS011;30245;51.966;6.292;2023-05-23T06:01:45;7.35;;;3.75;;
44536;SDS011;30245;51.966;6.292;2023-05-23T06:04:10;3.42;;;2.45;;
44536;SDS011;30245;51.966;6.292;2023-05-23T06:06:36;11.63;;;3.25;;
44536;SDS011;30245;51.966;6.292;2023-05-23T06:09:02;9.38;;;2.03;;
44536;SDS011;30245;51.966;6.292;2023-05-23T06:11:27;7.78;;;2.20;;
44536;SDS011;30245;51.966;6.292;2023-05-23T06:13:53;4.35;;;1.70;;
44536;SDS011;30245;51.966;6.292;2023-05-23T06:16:18;9.88;;;2.92;;
44536;SDS011;30245;51.966;6.292;2023-05-23T06:18:44;7.38;;;2.58;;
44536;SDS011;30245;51.966;6.292;2023-05-23T06:21:09;5.60;;;2.35;;
44536;SDS011;30245;51.966;6.292;2023-05-23T06:23:35;3.60;;;1.67;;
44536;SDS011;30245;51.966;6.292;2023-05-23T06:26:00;10.68;;;2.83;;
44536;SDS011;30245;51.966;6.292;2023-05-23T06:28:26;8.75;;;2.10;;
44536;SDS011;30245;51.966;6.292;2023-05-23T06:30:51;9.40;;;3.25;;
44536;SDS011;30245;51.966;6.292;2023-05-23T06:33:17;8.15;;;2.70;;
44536;SDS011;30245;51.966;6.292;2023-05-23T06:35:43;6.25;;;1.92;;
44536;SDS011;30245;51.966;6.292;2023-05-23T06:38:08;7.15;;;3.08;;
44536;SDS011;30245;51.966;6.292;2023-05-23T06:40:34;7.20;;;2.30;;
44536;SDS011;30245;51.966;6.292;2023-05-23T06:42:59;5.38;;;2.88;;
44536;SDS011;30245;51.966;6.292;2023-05-23T06:45:25;6.13;;;2.63;;
44536;SDS011;30245;51.966;6.292;2023-05-23T06:47:50;9.77;;;4.60;;
44536;SDS011;30245;51.966;6.292;2023-05-23T06:50:16;7.03;;;2.50;;
44536;SDS011;30245;51.966;6.292;2023-05-23T06:52:45;9.23;;;2.78;;
44536;SDS011;30245;51.966;6.292;2023-05-23T06:55:11;8.77;;;3.53;;
44536;SDS011;30245;51.966;6.292;2023-05-23T06:57:42;6.90;;;2.40;;
44536;SDS011;30245;51.966;6.292;2023-05-23T07:00:07;12.68;;;1.85;;
44536;SDS011;30245;51.966;6.292;2023-05-23T07:02:34;5.70;;;1.90;;
44536;SDS011;30245;51.966;6.292;2023-05-23T07:04:59;5.15;;;1.50;;
44536;SDS011;30245;51.966;6.292;2023-05-23T07:07:25;7.35;;;1.60;;
44536;SDS011;30245;51.966;6.292;2023-05-23T07:09:50;8.13;;;3.08;;
44536;SDS011;30245;51.966;6.292;2023-05-23T07:12:16;3.65;;;2.03;;
44536;SDS011;30245;51.966;6.292;2023-05-23T07:14:41;4.80;;;2.00;;
44536;SDS011;30245;51.966;6.292;2023-05-23T07:17:07;7.93;;;1.55;;
44536;SDS011;30245;51.966;6.292;2023-05-23T07:19:33;9.95;;;1.85;;
44536;SDS011;30245;51.966;6.292;2023-05-23T07:21:58;9.68;;;2.55;;
44536;SDS011;30245;51.966;6.292;2023-05-23T07:24:24;7.32;;;1.65;;
44536;SDS011;30245;51.966;6.292;2023-05-23T07:26:49;8.27;;;1.65;;
44536;SDS011;30245;51.966;6.292;2023-05-23T07:29:15;3.38;;;1.15;;
44536;SDS011;30245;51.966;6.292;2023-05-23T07:31:40;6.03;;;1.90;;
44536;SDS011;30245;51.966;6.292;2023-05-23T07:34:06;8.93;;;2.13;;
44536;SDS011;30245;51.966;6.292;2023-05-23T07:36:31;4.95;;;1.77;;
44536;SDS011;30245;51.966;6.292;2023-05-23T07:38:59;8.00;;;1.80;;
44536;SDS011;30245;51.966;6.292;2023-05-23T07:41:25;7.82;;;2.05;;
44536;SDS011;30245;51.966;6.292;2023-05-23T07:43:51;5.95;;;2.30;;
44536;SDS011;30245;51.966;6.292;2023-05-23T07:46:16;4.28;;;1.15;;
44536;SDS011;30245;51.966;6.292;2023-05-23T07:48:42;3.88;;;1.45;;
44536;SDS011;30245;51.966;6.292;2023-05-23T07:51:07;8.43;;;3.92;;
44536;SDS011;30245;51.966;6.292;2023-05-23T07:53:33;3.30;;;1.40;;
44536;SDS011;30245;51.966;6.292;2023-05-23T07:55:59;6.45;;;2.72;;
44536;SDS011;30245;51.966;6.292;2023-05-23T07:58:25;5.10;;;1.23;;
44536;SDS011;30245;51.966;6.292;2023-05-23T08:00:50;5.32;;;1.95;;
44536;SDS011;30245;51.966;6.292;2023-05-23T08:03:16;4.60;;;1.13;;
44536;SDS011;30245;51.966;6.292;2023-05-23T08:05:43;7.00;;;1.25;;
44536;SDS011;30245;51.966;6.292;2023-05-23T08:08:08;4.38;;;1.25;;
44536;SDS011;30245;51.966;6.292;2023-05-23T08:10:34;1.80;;;1.10;;
44536;SDS011;30245;51.966;6.292;2023-05-23T08:12:59;2.83;;;1.05;;
44536;SDS011;30245;51.966;6.292;2023-05-23T08:15:30;4.95;;;2.00;;
44536;SDS011;30245;51.966;6.292;2023-05-23T08:17:56;6.63;;;1.80;;
44536;SDS011;30245;51.966;6.292;2023-05-23T08:20:22;5.78;;;1.67;;
44536;SDS011;30245;51.966;6.292;2023-05-23T08:22:56;5.45;;;1.75;;
44536;SDS011;30245;51.966;6.292;2023-05-23T08:25:26;4.00;;;1.25;;
44536;SDS011;30245;51.966;6.292;2023-05-23T08:27:56;4.00;;;2.28;;
44536;SDS011;30245;51.966;6.292;2023-05-23T08:30:23;6.25;;;1.10;;
44536;SDS011;30245;51.966;6.292;2023-05-23T08:32:52;9.10;;;1.15;;
44536;SDS011;30245;51.966;6.292;2023-05-23T08:35:21;5.18;;;1.70;;
44536;SDS011;30245;51.966;6.292;2023-05-23T08:37:47;5.55;;;1.45;;
44536;SDS011;30245;51.966;6.292;2023-05-23T08:40:17;5.22;;;0.90;;
44536;SDS011;30245;51.966;6.292;2023-05-23T08:42:46;3.78;;;0.90;;
44536;SDS011;30245;51.966;6.292;2023-05-23T08:45:12;6.25;;;0.90;;
44536;SDS011;30245;51.966;6.292;2023-05-23T08:47:41;5.65;;;1.52;;
44536;SDS011;30245;51.966;6.292;2023-05-23T08:50:10;6.93;;;1.70;;
44536;SDS011;30245;51.966;6.292;2023-05-23T08:52:39;2.53;;;0.85;;
44536;SDS011;30245;51.966;6.292;2023-05-23T08:55:12;3.35;;;0.95;;
44536;SDS011;30245;51.966;6.292;2023-05-23T08:57:38;5.15;;;1.08;;
44536;SDS011;30245;51.966;6.292;2023-05-23T09:00:10;6.15;;;0.73;;
44536;SDS011;30245;51.966;6.292;2023-05-23T09:02:39;7.32;;;1.02;;
44536;SDS011;30245;51.966;6.292;2023-05-23T09:05:07;4.00;;;1.13;;
44536;SDS011;30245;51.966;6.292;2023-05-23T09:07:33;2.78;;;0.88;;
44536;SDS011;30245;51.966;6.292;2023-05-23T09:09:59;6.85;;;0.80;;
44536;SDS011;30245;51.966;6.292;2023-05-23T09:12:25;2.22;;;0.55;;
44536;SDS011;30245;51.966;6.292;2023-05-23T09:14:51;8.32;;;0.90;;
44536;SDS011;30245;51.966;6.292;2023-05-23T09:17:19;3.47;;;0.88;;
44536;SDS011;30245;51.966;6.292;2023-05-23T09:19:45;2.35;;;0.90;;
44536;SDS011;30245;51.966;6.292;2023-05-23T09:22:13;6.45;;;1.33;;
44536;SDS011;30245;51.966;6.292;2023-05-23T09:24:39;2.40;;;0.60;;
44536;SDS011;30245;51.966;6.292;2023-05-23T09:27:05;4.38;;;1.02;;
44536;SDS011;30245;51.966;6.292;2023-05-23T09:29:31;11.52;;;1.17;;
44536;SDS011;30245;51.966;6.292;2023-05-23T09:32:13;5.38;;;1.02;;
44536;SDS011;30245;51.966;6.292;2023-05-23T09:34:56;3.35;;;0.50;;
44536;SDS011;30245;51.966;6.292;2023-05-23T09:37:29;2.38;;;0.57;;
44536;SDS011;30245;51.966;6.292;2023-05-23T09:40:09;4.90;;;0.98;;
44536;SDS011;30245;51.966;6.292;2023-05-23T09:42:44;5.70;;;1.55;;
44536;SDS011;30245;51.966;6.292;2023-05-23T09:45:13;5.18;;;1.38;;
44536;SDS011;30245;51.966;6.292;2023-05-23T09:47:49;6.13;;;0.60;;
44536;SDS011;30245;51.966;6.292;2023-05-23T09:50:15;5.20;;;0.80;;
44536;SDS011;30245;51.966;6.292;2023-05-23T09:52:41;6.78;;;1.15;;
44536;SDS011;30245;51.966;6.292;2023-05-23T09:55:07;4.25;;;0.75;;
44536;SDS011;30245;51.966;6.292;2023-05-23T09:57:39;6.05;;;1.33;;
44536;SDS011;30245;51.966;6.292;2023-05-23T10:00:06;3.28;;;0.47;;
44536;SDS011;30245;51.966;6.292;2023-05-23T10:05:45;4.75;;;1.00;;
44536;SDS011;30245;51.966;6.292;2023-05-23T10:08:35;7.45;;;0.63;;
44536;SDS011;30245;51.966;6.292;2023-05-23T10:13:37;4.65;;;0.80;;
44536;SDS011;30245;51.966;6.292;2023-05-23T10:16:54;9.00;;;1.10;;
44536;SDS011;30245;51.966;6.292;2023-05-23T10:18:59;4.85;;;0.70;;
44536;SDS011;30245;51.966;6.292;2023-05-23T10:21:34;4.10;;;0.80;;
44536;SDS011;30245;51.966;6.292;2023-05-23T10:24:04;8.75;;;0.60;;
44536;SDS011;30245;51.966;6.292;2023-05-23T10:26:31;3.60;;;0.50;;
44536;SDS011;30245;51.966;6.292;2023-05-23T10:28:57;6.85;;;0.82;;
44536;SDS011;30245;51.966;6.292;2023-05-23T10:31:24;4.18;;;0.80;;
44536;SDS011;30245;51.966;6.292;2023-05-23T10:33:55;7.10;;;1.80;;
44536;SDS011;30245;51.966;6.292;2023-05-23T10:36:35;4.82;;;0.40;;
44536;SDS011;30245;51.966;6.292;2023-05-23T10:39:21;4.53;;;1.00;;
44536;SDS011;30245;51.966;6.292;2023-05-23T10:42:01;4.10;;;0.50;;
44536;SDS011;30245;51.966;6.292;2023-05-23T10:44:32;7.25;;;1.25;;
44536;SDS011;30245;51.966;6.292;2023-05-23T10:46:58;8.55;;;1.52;;
44536;SDS011;30245;51.966;6.292;2023-05-23T10:49:47;4.47;;;0.43;;
44536;SDS011;30245;51.966;6.292;2023-05-23T10:52:16;2.78;;;0.50;;
44536;SDS011;30245;51.966;6.292;2023-05-23T10:57:16;5.22;;;0.50;;
44536;SDS011;30245;51.966;6.292;2023-05-23T10:59:44;3.58;;;0.90;;
44536;SDS011;30245;51.966;6.292;2023-05-23T11:02:14;6.03;;;1.35;;
44536;SDS011;30245;51.966;6.292;2023-05-23T11:04:43;3.58;;;0.60;;
44536;SDS011;30245;51.966;6.292;2023-05-23T11:07:28;6.32;;;0.85;;
44536;SDS011;30245;51.966;6.292;2023-05-23T11:10:10;3.80;;;0.73;;
44536;SDS011;30245;51.966;6.292;2023-05-23T11:12:41;4.53;;;0.60;;
44536;SDS011;30245;51.966;6.292;2023-05-23T11:15:18;5.32;;;0.93;;
44536;SDS011;30245;51.966;6.292;2023-05-23T11:17:49;2.97;;;0.60;;
44536;SDS011;30245;51.966;6.292;2023-05-23T11:20:16;2.65;;;0.75;;
44536;SDS011;30245;51.966;6.292;2023-05-23T11:22:53;5.65;;;0.93;;
44536;SDS011;30245;51.966;6.292;2023-05-23T11:25:46;2.33;;;0.80;;
44536;SDS011;30245;51.966;6.292;2023-05-23T11:28:13;2.15;;;0.40;;
44536;SDS011;30245;51.966;6.292;2023-05-23T11:30:39;7.35;;;0.80;;
44536;SDS011;30245;51.966;6.292;2023-05-23T11:33:08;2.10;;;0.65;;
44536;SDS011;30245;51.966;6.292;2023-05-23T11:35:41;3.92;;;0.60;;
44536;SDS011;30245;51.966;6.292;2023-05-23T11:38:09;4.85;;;0.60;;
44536;SDS011;30245;51.966;6.292;2023-05-23T11:40:36;4.13;;;0.43;;
44536;SDS011;30245;51.966;6.292;2023-05-23T11:43:04;3.17;;;0.70;;
44536;SDS011;30245;51.966;6.292;2023-05-23T11:45:31;3.45;;;0.60;;
44536;SDS011;30245;51.966;6.292;2023-05-23T11:48:03;3.40;;;0.80;;
44536;SDS011;30245;51.966;6.292;2023-05-23T11:50:29;10.23;;;1.05;;
44536;SDS011;30245;51.966;6.292;2023-05-23T11:52:55;3.65;;;0.60;;
44536;SDS011;30245;51.966;6.292;2023-05-23T11:55:21;6.03;;;0.77;;
44536;SDS011;30245;51.966;6.292;2023-05-23T11:57:47;8.23;;;0.90;;
44536;SDS011;30245;51.966;6.292;2023-05-23T12:00:14;1.83;;;0.40;;
44536;SDS011;30245;51.966;6.292;2023-05-23T12:02:40;2.67;;;0.68;;
44536;SDS011;30245;51.966;6.292;2023-05-23T12:05:10;2.65;;;0.40;;
44536;SDS011;30245;51.966;6.292;2023-05-23T12:07:46;4.00;;;0.45;;
44536;SDS011;30245;51.966;6.292;2023-05-23T12:10:13;4.22;;;0.68;;
44536;SDS011;30245;51.966;6.292;2023-05-23T12:12:40;4.28;;;0.60;;
44536;SDS011;30245;51.966;6.292;2023-05-23T12:15:07;5.13;;;0.43;;
44536;SDS011;30245;51.966;6.292;2023-05-23T12:17:35;2.55;;;0.50;;
44536;SDS011;30245;51.966;6.292;2023-05-23T12:20:01;3.45;;;0.43;;
44536;SDS011;30245;51.966;6.292;2023-05-23T12:22:28;4.30;;;1.00;;
44536;SDS011;30245;51.966;6.292;2023-05-23T12:24:54;7.75;;;0.50;;
44536;SDS011;30245;51.966;6.292;2023-05-23T12:27:53;3.13;;;0.70;;
44536;SDS011;30245;51.966;6.292;2023-05-23T12:30:13;2.75;;;0.52;;
44536;SDS011;30245;51.966;6.292;2023-05-23T12:32:43;5.00;;;0.85;;
44536;SDS011;30245;51.966;6.292;2023-05-23T12:35:10;4.32;;;1.13;;
44536;SDS011;30245;51.966;6.292;2023-05-23T12:37:44;3.70;;;0.40;;
44536;SDS011;30245;51.966;6.292;2023-05-23T12:40:17;3.83;;;0.47;;
44536;SDS011;30245;51.966;6.292;2023-05-23T12:42:45;4.00;;;0.50;;
44536;SDS011;30245;51.966;6.292;2023-05-23T12:45:22;2.53;;;0.60;;
44536;SDS011;30245;51.966;6.292;2023-05-23T12:47:58;2.70;;;0.50;;
44536;SDS011;30245;51.966;6.292;2023-05-23T12:50:24;6.13;;;1.15;;
44536;SDS011;30245;51.966;6.292;2023-05-23T12:52:49;3.42;;;0.30;;
44536;SDS011;30245;51.966;6.292;2023-05-23T12:55:16;3.45;;;0.30;;
44536;SDS011;30245;51.966;6.292;2023-05-23T12:57:42;6.82;;;0.85;;
44536;SDS011;30245;51.966;6.292;2023-05-23T13:00:08;4.25;;;0.65;;
44536;SDS011;30245;51.966;6.292;2023-05-23T13:02:35;1.73;;;0.50;;
44536;SDS011;30245;51.966;6.292;2023-05-23T13:05:01;4.35;;;0.52;;
44536;SDS011;30245;51.966;6.292;2023-05-23T13:07:27;6.28;;;0.60;;
44536;SDS011;30245;51.966;6.292;2023-05-23T13:09:53;3.42;;;0.40;;
44536;SDS011;30245;51.966;6.292;2023-05-23T13:12:18;9.65;;;0.70;;
44536;SDS011;30245;51.966;6.292;2023-05-23T13:14:44;5.05;;;0.80;;
44536;SDS011;30245;51.966;6.292;2023-05-23T13:17:10;3.40;;;0.60;;
44536;SDS011;30245;51.966;6.292;2023-05-23T13:19:36;3.28;;;0.95;;
44536;SDS011;30245;51.966;6.292;2023-05-23T13:22:03;3.42;;;0.60;;
44536;SDS011;30245;51.966;6.292;2023-05-23T13:24:30;8.73;;;0.60;;
44536;SDS011;30245;51.966;6.292;2023-05-23T13:26:55;2.45;;;0.50;;
44536;SDS011;30245;51.966;6.292;2023-05-23T13:29:21;6.72;;;0.60;;
44536;SDS011;30245;51.966;6.292;2023-05-23T13:31:46;3.97;;;0.77;;
44536;SDS011;30245;51.966;6.292;2023-05-23T13:34:12;2.70;;;0.50;;
44536;SDS011;30245;51.966;6.292;2023-05-23T13:36:38;3.17;;;0.68;;
44536;SDS011;30245;51.966;6.292;2023-05-23T13:39:03;5.70;;;0.55;;
44536;SDS011;30245;51.966;6.292;2023-05-23T13:41:29;3.47;;;0.43;;
44536;SDS011;30245;51.966;6.292;2023-05-23T13:43:55;4.00;;;0.40;;
44536;SDS011;30245;51.966;6.292;2023-05-23T13:46:20;3.10;;;0.30;;
44536;SDS011;30245;51.966;6.292;2023-05-23T13:48:46;5.72;;;0.90;;
44536;SDS011;30245;51.966;6.292;2023-05-23T13:51:11;4.95;;;1.00;;
44536;SDS011;30245;51.966;6.292;2023-05-23T13:53:37;3.28;;;0.55;;
44536;SDS011;30245;51.966;6.292;2023-05-23T13:56:03;3.30;;;0.50;;
44536;SDS011;30245;51.966;6.292;2023-05-23T13:58:28;3.35;;;1.15;;
44536;SDS011;30245;51.966;6.292;2023-05-23T14:00:54;2.67;;;0.28;;
44536;SDS011;30245;51.966;6.292;2023-05-23T14:03:19;4.22;;;0.50;;
44536;SDS011;30245;51.966;6.292;2023-05-23T14:05:45;2.67;;;0.63;;
44536;SDS011;30245;51.966;6.292;2023-05-23T14:08:11;3.53;;;0.52;;
44536;SDS011;30245;51.966;6.292;2023-05-23T14:10:37;3.22;;;0.43;;
44536;SDS011;30245;51.966;6.292;2023-05-23T14:13:04;4.25;;;0.80;;
44536;SDS011;30245;51.966;6.292;2023-05-23T14:15:30;3.00;;;0.60;;
44536;SDS011;30245;51.966;6.292;2023-05-23T14:17:56;5.57;;;0.70;;
44536;SDS011;30245;51.966;6.292;2023-05-23T14:20:21;4.32;;;0.95;;
44536;SDS011;30245;51.966;6.292;2023-05-23T14:22:47;4.43;;;1.08;;
44536;SDS011;30245;51.966;6.292;2023-05-23T14:25:14;3.05;;;0.50;;
44536;SDS011;30245;51.966;6.292;2023-05-23T14:27:41;3.90;;;0.60;;
44536;SDS011;30245;51.966;6.292;2023-05-23T14:30:07;9.98;;;0.60;;
44536;SDS011;30245;51.966;6.292;2023-05-23T14:32:33;6.10;;;0.65;;
44536;SDS011;30245;51.966;6.292;2023-05-23T14:35:02;5.32;;;0.80;;
44536;SDS011;30245;51.966;6.292;2023-05-23T14:37:33;3.22;;;0.57;;
44536;SDS011;30245;51.966;6.292;2023-05-23T14:39:58;3.97;;;0.95;;
44536;SDS011;30245;51.966;6.292;2023-05-23T14:42:24;2.45;;;0.47;;
44536;SDS011;30245;51.966;6.292;2023-05-23T14:44:51;3.53;;;0.95;;
44536;SDS011;30245;51.966;6.292;2023-05-23T14:47:17;4.68;;;0.80;;
44536;SDS011;30245;51.966;6.292;2023-05-23T14:49:43;4.70;;;0.93;;
44536;SDS011;30245;51.966;6.292;2023-05-23T14:52:09;3.05;;;0.65;;
44536;SDS011;30245;51.966;6.292;2023-05-23T14:54:36;4.28;;;0.50;;
44536;SDS011;30245;51.966;6.292;2023-05-23T14:57:04;3.55;;;0.40;;
44536;SDS011;30245;51.966;6.292;2023-05-23T14:59:30;3.25;;;0.38;;
44536;SDS011;30245;51.966;6.292;2023-05-23T15:01:59;1.73;;;0.40;;
44536;SDS011;30245;51.966;6.292;2023-05-23T15:04:25;3.75;;;0.80;;
44536;SDS011;30245;51.966;6.292;2023-05-23T15:06:50;3.85;;;0.77;;
44536;SDS011;30245;51.966;6.292;2023-05-23T15:09:16;2.53;;;0.40;;